createdAt,value
2022-08-27T00:01:22.220Z,19.52
2022-08-27T00:02:54.068Z,19.48
2022-08-27T00:04:25.872Z,19.47
2022-08-27T00:05:57.578Z,19.46
2022-08-27T00:07:29.369Z,19.46
2022-08-27T00:09:01.019Z,19.48
2022-08-27T00:10:34.151Z,19.49
2022-08-27T00:12:05.823Z,19.50
2022-08-27T00:13:37.705Z,19.50
2022-08-27T00:15:11.012Z,19.50
2022-08-27T00:16:43.213Z,19.50
2022-08-27T00:18:14.952Z,19.51
2022-08-27T00:19:46.566Z,19.54
2022-08-27T00:21:19.001Z,19.57
2022-08-27T00:22:50.908Z,19.59
2022-08-27T00:24:24.090Z,19.59
2022-08-27T00:25:56.326Z,19.58
2022-08-27T00:27:29.237Z,19.57
2022-08-27T00:29:00.806Z,19.56
2022-08-27T00:30:32.794Z,19.55
2022-08-27T00:32:04.788Z,19.50
2022-08-27T00:33:36.702Z,19.48
2022-08-27T00:35:08.687Z,19.42
2022-08-27T00:36:40.627Z,19.38
2022-08-27T00:38:12.654Z,19.37
2022-08-27T00:39:44.358Z,19.37
2022-08-27T00:41:17.173Z,19.39
2022-08-27T00:42:50.351Z,19.43
2022-08-27T00:44:22.678Z,19.46
2022-08-27T00:45:55.993Z,19.48
2022-08-27T00:47:28.514Z,19.47
2022-08-27T00:49:01.569Z,19.46
2022-08-27T00:50:33.241Z,19.46
2022-08-27T00:52:06.235Z,19.44
2022-08-27T00:53:37.866Z,19.42
2022-08-27T00:55:10.467Z,19.41
2022-08-27T00:56:48.691Z,19.41
2022-08-27T00:58:23.768Z,19.42
2022-08-27T00:59:55.443Z,19.39
2022-08-27T01:01:29.151Z,19.34
2022-08-27T01:03:00.727Z,19.26
2022-08-27T01:04:33.286Z,19.19
2022-08-27T01:06:06.563Z,19.13
2022-08-27T01:07:39.076Z,19.07
2022-08-27T01:09:12.671Z,19.04
2022-08-27T01:10:44.533Z,19.03
2022-08-27T01:12:16.523Z,19.00
2022-08-27T01:13:59.625Z,18.96
2022-08-27T01:15:32.709Z,18.90
2022-08-27T01:17:06.008Z,18.86
2022-08-27T01:18:37.768Z,18.81
2022-08-27T01:20:11.747Z,18.74
2022-08-27T01:21:47.018Z,18.66
2022-08-27T01:23:20.951Z,18.57
2022-08-27T01:24:56.490Z,18.49
2022-08-27T01:26:28.190Z,18.45
2022-08-27T01:28:00.883Z,18.41
2022-08-27T01:29:32.716Z,18.41
2022-08-27T01:31:05.268Z,18.39
2022-08-27T01:32:37.126Z,18.35
2022-08-27T01:34:08.934Z,18.33
2022-08-27T01:35:41.250Z,18.29
2022-08-27T01:37:13.014Z,18.28
2022-08-27T01:38:44.619Z,18.28
2022-08-27T01:40:16.954Z,18.28
2022-08-27T01:41:48.604Z,18.30
2022-08-27T01:43:24.222Z,18.32
2022-08-27T01:44:59.346Z,18.29
2022-08-27T01:46:31.160Z,18.28
2022-08-27T01:48:03.226Z,18.29
2022-08-27T01:49:34.863Z,18.30
2022-08-27T01:51:06.767Z,18.34
2022-08-27T01:52:38.369Z,18.33
2022-08-27T01:54:11.047Z,18.33
2022-08-27T01:55:47.563Z,18.33
2022-08-27T01:57:25.259Z,18.35
2022-08-27T01:58:57.570Z,18.37
2022-08-27T02:00:34.227Z,18.39
2022-08-27T02:02:06.236Z,18.37
2022-08-27T02:03:37.953Z,18.35
2022-08-27T02:05:09.669Z,18.32
2022-08-27T02:06:41.384Z,18.30
2022-08-27T02:08:13.790Z,18.29
2022-08-27T02:09:46.492Z,18.25
2022-08-27T02:11:18.252Z,18.22
2022-08-27T02:12:49.936Z,18.18
2022-08-27T02:14:21.679Z,18.15
2022-08-27T02:15:53.441Z,18.14
2022-08-27T02:17:25.297Z,18.12
2022-08-27T02:18:57.073Z,18.12
2022-08-27T02:21:00.142Z,18.11
2022-08-27T02:22:32.571Z,18.09
2022-08-27T02:24:04.384Z,18.09
2022-08-27T02:25:36.134Z,18.09
2022-08-27T02:27:08.046Z,18.11
2022-08-27T02:28:40.115Z,18.10
2022-08-27T02:30:12.346Z,18.06
2022-08-27T02:31:44.542Z,18.05
2022-08-27T02:33:17.638Z,18.03
2022-08-27T02:34:49.596Z,18.02
2022-08-27T02:36:21.318Z,18.01
2022-08-27T02:37:52.961Z,18.05
2022-08-27T02:39:24.653Z,18.08
2022-08-27T02:40:56.168Z,18.08
2022-08-27T02:42:31.548Z,18.01
2022-08-27T02:44:10.164Z,17.95
2022-08-27T02:45:43.368Z,17.89
2022-08-27T02:47:15.537Z,17.86
2022-08-27T02:48:47.201Z,17.83
2022-08-27T02:50:18.852Z,17.82
2022-08-27T02:51:53.693Z,17.82
2022-08-27T02:53:25.530Z,17.82
2022-08-27T02:54:57.386Z,17.82
2022-08-27T02:56:30.268Z,17.77
2022-08-27T02:58:02.077Z,17.74
2022-08-27T02:59:33.831Z,17.73
2022-08-27T03:01:05.656Z,17.75
2022-08-27T03:02:43.138Z,17.79
2022-08-27T03:04:15.283Z,17.80
2022-08-27T03:05:47.633Z,17.81
2022-08-27T03:07:19.871Z,17.84
2022-08-27T03:08:52.955Z,17.84
2022-08-27T03:10:24.987Z,17.80
2022-08-27T03:11:56.983Z,17.72
2022-08-27T03:13:28.707Z,17.71
2022-08-27T03:15:00.466Z,17.70
2022-08-27T03:16:35.702Z,17.69
2022-08-27T03:18:19.818Z,17.66
2022-08-27T03:19:51.468Z,17.64
2022-08-27T03:21:24.519Z,17.58
2022-08-27T03:22:56.380Z,17.57
2022-08-27T03:24:28.043Z,17.56
2022-08-27T03:26:02.096Z,17.52
2022-08-27T03:27:33.781Z,17.50
2022-08-27T03:29:09.301Z,17.47
2022-08-27T03:36:12.088Z,17.49
2022-08-27T03:37:43.773Z,17.47
2022-08-27T03:39:15.377Z,17.44
2022-08-27T03:40:47.306Z,17.44
2022-08-27T03:42:18.871Z,17.43
2022-08-27T03:43:53.065Z,17.42
2022-08-27T03:45:24.704Z,17.42
2022-08-27T03:46:56.362Z,17.41
2022-08-27T03:48:29.170Z,17.37
2022-08-27T03:50:00.997Z,17.31
2022-08-27T03:51:32.688Z,17.28
2022-08-27T03:53:04.234Z,17.22
2022-08-27T03:54:36.408Z,17.19
2022-08-27T03:56:08.415Z,17.20
2022-08-27T03:57:40.870Z,17.22
2022-08-27T03:59:12.450Z,17.22
2022-08-27T04:00:44.206Z,17.19
2022-08-27T04:02:16.594Z,17.20
2022-08-27T04:03:48.497Z,17.16
2022-08-27T04:05:20.229Z,17.16
2022-08-27T04:06:51.927Z,17.15
2022-08-27T04:08:23.764Z,17.16
2022-08-27T04:09:55.608Z,17.15
2022-08-27T04:11:31.703Z,17.13
2022-08-27T04:21:08.849Z,17.32
2022-08-27T04:22:40.539Z,17.35
2022-08-27T04:24:12.351Z,17.41
2022-08-27T04:25:44.238Z,17.46
2022-08-27T04:27:16.569Z,17.54
2022-08-27T04:28:48.856Z,17.57
2022-08-27T04:30:20.625Z,17.63
2022-08-27T04:31:52.735Z,17.66
2022-08-27T04:33:24.296Z,17.70
2022-08-27T04:34:56.624Z,17.73
2022-08-27T04:36:28.330Z,17.75
2022-08-27T04:38:00.247Z,17.76
2022-08-27T04:39:31.969Z,17.79
2022-08-27T04:41:27.478Z,17.83
2022-08-27T04:42:59.127Z,17.88
2022-08-27T04:44:31.637Z,17.96
2022-08-27T04:46:03.593Z,18.03
2022-08-27T04:47:35.447Z,18.07
2022-08-27T04:49:15.702Z,18.15
2022-08-27T04:50:47.460Z,18.23
2022-08-27T04:52:19.034Z,18.30
2022-08-27T04:53:51.123Z,18.40
2022-08-27T04:55:22.892Z,18.45
2022-08-27T04:56:54.546Z,18.51
2022-08-27T04:58:26.572Z,18.56
2022-08-27T04:59:58.092Z,18.58
2022-08-27T05:01:30.015Z,18.66
2022-08-27T05:03:02.499Z,18.71
2022-08-27T05:04:36.792Z,18.77
2022-08-27T05:06:08.654Z,18.81
2022-08-27T05:07:40.630Z,18.91
2022-08-27T05:09:15.485Z,19.00
2022-08-27T05:10:49.011Z,19.09
2022-08-27T05:12:20.819Z,19.16
2022-08-27T05:13:52.672Z,19.26
2022-08-27T05:15:24.794Z,19.36
2022-08-27T05:16:58.068Z,19.45
2022-08-27T05:18:29.866Z,19.57
2022-08-27T05:20:01.522Z,19.66
2022-08-27T05:21:33.915Z,19.73
2022-08-27T05:23:05.727Z,19.81
2022-08-27T05:24:37.562Z,19.87
2022-08-27T05:26:09.687Z,19.96
2022-08-27T05:27:41.250Z,20.02
2022-08-27T05:29:13.579Z,20.06
2022-08-27T05:30:52.228Z,20.12
2022-08-27T05:32:26.860Z,20.20
2022-08-27T05:33:58.482Z,20.25
2022-08-27T05:35:32.719Z,20.28
2022-08-27T05:37:04.385Z,20.36
2022-08-27T05:38:36.800Z,20.46
2022-08-27T05:40:08.951Z,20.55
2022-08-27T05:41:40.725Z,20.58
2022-08-27T05:43:15.996Z,20.62
2022-08-27T05:44:48.247Z,20.72
2022-08-27T05:46:20.645Z,20.75
2022-08-27T05:47:52.576Z,20.77
2022-08-27T05:49:24.308Z,20.79
2022-08-27T05:50:56.850Z,20.79
2022-08-27T05:52:28.899Z,20.85
2022-08-27T05:54:08.623Z,20.93
2022-08-27T05:55:41.468Z,21.03
2022-08-27T05:57:13.177Z,21.23
2022-08-27T05:59:03.885Z,21.46
2022-08-27T06:01:02.199Z,21.63
2022-08-27T06:02:37.541Z,21.83
2022-08-27T06:04:09.841Z,22.01
2022-08-27T06:05:41.858Z,22.17
2022-08-27T06:07:14.372Z,22.27
2022-08-27T06:08:46.061Z,22.34
2022-08-27T06:10:18.034Z,22.45
2022-08-27T06:11:49.788Z,22.57
2022-08-27T06:13:21.525Z,22.71
2022-08-27T06:15:15.975Z,22.84
2022-08-27T06:16:48.717Z,22.98
2022-08-27T06:18:20.562Z,23.05
2022-08-27T06:19:52.277Z,23.15
2022-08-27T06:21:24.950Z,23.22
2022-08-27T06:22:57.282Z,23.30
2022-08-27T06:24:32.602Z,23.34
2022-08-27T06:33:48.309Z,23.58
2022-08-27T06:35:20.450Z,23.56
2022-08-27T06:36:53.889Z,23.66
2022-08-27T06:38:25.549Z,23.78
2022-08-27T06:39:57.295Z,23.80
2022-08-27T06:41:29.705Z,23.74
2022-08-27T06:43:01.793Z,23.81
2022-08-27T06:44:34.037Z,23.88
2022-08-27T06:46:09.177Z,23.91
2022-08-27T06:50:56.706Z,24.03
2022-08-27T06:54:59.353Z,24.34
2022-08-27T06:56:31.809Z,24.37
2022-08-27T06:58:03.785Z,24.42
2022-08-27T06:59:35.630Z,24.47
2022-08-27T07:01:22.898Z,24.32
2022-08-27T07:02:55.070Z,24.38
2022-08-27T07:06:05.338Z,24.53
2022-08-27T07:07:43.198Z,24.61
2022-08-27T07:09:17.068Z,24.79
2022-08-27T07:10:49.177Z,24.92
2022-08-27T07:12:21.828Z,25.08
2022-08-27T07:14:02.376Z,25.27
2022-08-27T07:15:35.458Z,25.52
2022-08-27T07:17:11.059Z,25.68
2022-08-27T07:18:47.912Z,25.84
2022-08-27T07:20:20.777Z,25.97
2022-08-27T07:21:52.502Z,26.08
2022-08-27T07:23:24.104Z,26.05
2022-08-27T07:24:56.273Z,26.03
2022-08-27T07:26:28.835Z,26.15
2022-08-27T07:28:01.559Z,26.31
2022-08-27T07:29:33.245Z,26.47
2022-08-27T07:31:05.773Z,26.58
2022-08-27T07:32:37.688Z,26.66
2022-08-27T07:34:09.544Z,26.73
2022-08-27T07:35:41.414Z,26.71
2022-08-27T07:37:13.226Z,26.79
2022-08-27T07:38:45.083Z,26.84
2022-08-27T07:40:28.690Z,26.93
2022-08-27T07:42:20.059Z,27.06
2022-08-27T07:44:10.305Z,27.25
2022-08-27T07:45:47.923Z,27.37
2022-08-27T07:47:20.177Z,27.51
2022-08-27T07:48:52.160Z,27.65
2022-08-27T07:50:24.063Z,27.64
2022-08-27T07:51:56.004Z,27.66
2022-08-27T07:53:27.921Z,27.73
2022-08-27T07:54:59.746Z,27.72
2022-08-27T07:56:31.934Z,27.76
2022-08-27T07:58:03.869Z,27.90
2022-08-27T07:59:38.235Z,28.09
2022-08-27T08:01:10.317Z,28.22
2022-08-27T08:02:45.420Z,28.27
2022-08-27T08:04:20.295Z,28.32
2022-08-27T08:05:53.603Z,28.38
2022-08-27T08:07:25.845Z,28.46
2022-08-27T08:08:59.134Z,28.45
2022-08-27T08:10:35.323Z,28.60
2022-08-27T08:12:07.782Z,28.80
2022-08-27T08:13:41.373Z,28.94
2022-08-27T08:15:13.362Z,28.96
2022-08-27T08:16:45.675Z,28.81
2022-08-27T08:18:17.603Z,28.83
2022-08-27T08:20:15.509Z,28.92
2022-08-27T08:21:45.133Z,29.06
2022-08-27T08:23:16.908Z,29.06
2022-08-27T08:24:48.867Z,28.98
2022-08-27T08:26:22.545Z,28.98
2022-08-27T08:27:54.765Z,28.93
2022-08-27T08:29:27.097Z,29.03
2022-08-27T08:30:59.217Z,29.17
2022-08-27T08:32:30.997Z,29.29
2022-08-27T08:34:03.153Z,29.22
2022-08-27T08:35:39.466Z,29.23
2022-08-27T08:37:14.603Z,29.24
2022-08-27T08:38:46.683Z,29.18
2022-08-27T08:40:44.768Z,29.11
2022-08-27T08:42:33.084Z,29.25
2022-08-27T08:44:09.258Z,29.47
2022-08-27T08:45:41.461Z,29.58
2022-08-27T08:47:17.477Z,29.62
2022-08-27T08:48:49.825Z,29.65
2022-08-27T08:50:26.566Z,29.72
2022-08-27T08:52:00.684Z,29.75
2022-08-27T08:53:38.778Z,29.74
2022-08-27T08:55:24.305Z,29.78
2022-08-27T08:56:57.720Z,29.85
2022-08-27T08:58:32.827Z,29.93
2022-08-27T09:00:15.503Z,29.94
2022-08-27T09:01:49.273Z,30.01
2022-08-27T09:03:21.166Z,30.15
2022-08-27T09:04:54.117Z,30.24
2022-08-27T09:06:27.949Z,30.31
2022-08-27T09:08:33.079Z,30.43
2022-08-27T09:10:11.207Z,30.37
2022-08-27T09:11:46.921Z,30.33
2022-08-27T09:13:23.618Z,30.18
2022-08-27T09:14:58.088Z,30.22
2022-08-27T09:16:33.154Z,30.28
2022-08-27T09:18:08.855Z,30.37
2022-08-27T09:19:46.038Z,30.49
2022-08-27T09:21:18.435Z,30.64
2022-08-27T09:23:23.261Z,30.68
2022-08-27T09:25:00.887Z,30.76
2022-08-27T09:26:33.336Z,30.87
2022-08-27T09:28:33.060Z,30.94
2022-08-27T09:30:06.616Z,31.03
2022-08-27T09:31:41.172Z,31.11
2022-08-27T09:33:13.577Z,31.28
2022-08-27T09:34:45.522Z,31.48
2022-08-27T09:36:21.625Z,31.66
2022-08-27T09:37:56.254Z,31.80
2022-08-27T09:39:35.684Z,31.94
2022-08-27T09:41:08.194Z,31.83
2022-08-27T09:42:49.696Z,31.89
2022-08-27T09:44:23.114Z,31.99
2022-08-27T09:45:56.247Z,32.07
2022-08-27T09:47:28.088Z,32.14
2022-08-27T09:49:10.090Z,32.19
2022-08-27T09:50:43.878Z,32.31
2022-08-27T09:52:32.487Z,32.40
2022-08-27T09:54:09.520Z,32.46
2022-08-27T09:55:47.056Z,32.50
2022-08-27T09:57:30.729Z,32.60
2022-08-27T09:59:27.168Z,32.57
2022-08-27T10:01:00.371Z,32.60
2022-08-27T10:02:31.966Z,32.63
2022-08-27T10:04:11.294Z,32.78
2022-08-27T10:05:54.252Z,32.87
2022-08-27T10:07:29.115Z,32.84
2022-08-27T10:09:07.073Z,32.72
2022-08-27T10:10:41.090Z,32.79
2022-08-27T10:12:18.465Z,32.93
2022-08-27T10:13:57.583Z,33.07
2022-08-27T10:15:30.548Z,33.10
2022-08-27T10:17:12.011Z,33.05
2022-08-27T10:18:50.393Z,33.10
2022-08-27T10:20:31.239Z,33.13
2022-08-27T10:22:19.893Z,33.21
2022-08-27T10:23:57.556Z,33.37
2022-08-27T10:25:32.257Z,33.42
2022-08-27T10:27:23.880Z,33.48
2022-08-27T10:29:02.107Z,33.60
2022-08-27T10:30:39.707Z,33.66
2022-08-27T10:32:25.911Z,33.69
2022-08-27T10:34:17.393Z,33.83
2022-08-27T10:36:01.406Z,33.89
2022-08-27T10:37:36.728Z,33.93
2022-08-27T10:39:19.829Z,33.79
2022-08-27T10:41:13.538Z,33.57
2022-08-27T10:42:45.300Z,33.45
2022-08-27T10:44:24.301Z,33.40
2022-08-27T10:46:05.280Z,33.37
2022-08-27T10:47:46.833Z,33.35
2022-08-27T10:49:21.559Z,33.43
2022-08-27T10:51:20.044Z,33.49
2022-08-27T10:52:53.102Z,33.67
2022-08-27T10:54:31.245Z,33.70
2022-08-27T10:56:09.394Z,33.79
2022-08-27T10:58:01.314Z,33.95
2022-08-27T10:59:59.437Z,34.14
2022-08-27T11:01:39.492Z,34.33
2022-08-27T11:03:12.308Z,34.38
2022-08-27T11:04:53.301Z,34.34
2022-08-27T11:06:36.020Z,34.32
2022-08-27T11:08:27.556Z,34.41
2022-08-27T11:10:21.115Z,34.52
2022-08-27T11:12:13.881Z,34.67
2022-08-27T11:13:47.190Z,34.83
2022-08-27T11:15:23.209Z,34.93
2022-08-27T11:16:56.120Z,35.02
2022-08-27T11:18:40.238Z,35.14
2022-08-27T11:20:16.374Z,35.07
2022-08-27T11:21:59.501Z,34.78
2022-08-27T11:23:31.188Z,34.67
2022-08-27T11:25:05.921Z,34.71
2022-08-27T11:26:37.934Z,34.64
2022-08-27T11:28:10.769Z,34.62
2022-08-27T11:30:00.181Z,34.68
2022-08-27T11:31:36.217Z,34.80
2022-08-27T11:33:13.736Z,34.84
2022-08-27T11:35:02.959Z,34.88
2022-08-27T11:36:54.114Z,35.02
2022-08-27T11:38:36.396Z,35.19
2022-08-27T11:40:19.177Z,35.30
2022-08-27T11:41:50.904Z,35.34
2022-08-27T11:43:23.754Z,35.29
2022-08-27T11:44:57.446Z,35.26
2022-08-27T11:46:29.492Z,35.37
2022-08-27T11:48:01.846Z,35.49
2022-08-27T11:49:47.683Z,35.60
2022-08-27T11:51:51.775Z,35.71
2022-08-27T11:53:28.686Z,35.68
2022-08-27T11:55:18.942Z,35.68
2022-08-27T11:56:52.778Z,35.83
2022-08-27T11:58:26.252Z,35.87
2022-08-27T11:59:58.207Z,35.89
2022-08-27T12:01:30.780Z,35.97
2022-08-27T12:03:05.096Z,35.95
2022-08-27T12:04:38.426Z,35.92
2022-08-27T12:06:18.207Z,35.93
2022-08-27T12:07:51.837Z,35.98
2022-08-27T12:09:24.063Z,36.01
2022-08-27T12:11:14.372Z,35.96
2022-08-27T12:12:46.376Z,35.83
2022-08-27T12:14:21.580Z,35.83
2022-08-27T12:16:03.089Z,35.79
2022-08-27T12:17:37.956Z,35.78
2022-08-27T12:19:48.438Z,35.74
2022-08-27T12:21:23.603Z,35.79
2022-08-27T12:23:29.153Z,35.84
2022-08-27T12:25:01.518Z,35.78
2022-08-27T12:26:36.725Z,35.67
2022-08-27T12:28:09.995Z,35.55
2022-08-27T12:29:44.067Z,35.39
2022-08-27T12:31:20.104Z,35.28
2022-08-27T12:32:52.876Z,35.22
2022-08-27T12:34:25.713Z,35.13
2022-08-27T12:35:58.608Z,35.04
2022-08-27T12:37:32.364Z,34.88
2022-08-27T12:39:05.810Z,34.74
2022-08-27T12:40:43.200Z,34.65
2022-08-27T12:42:16.231Z,34.58
2022-08-27T12:43:48.619Z,34.43
2022-08-27T12:45:21.630Z,34.44
2022-08-27T12:47:00.632Z,34.44
2022-08-27T12:48:58.965Z,34.56
2022-08-27T12:50:54.491Z,34.74
2022-08-27T12:52:29.419Z,34.91
2022-08-27T12:54:07.713Z,34.98
2022-08-27T12:55:53.484Z,35.02
2022-08-27T12:57:33.250Z,35.07
2022-08-27T12:59:27.279Z,35.17
2022-08-27T13:01:07.815Z,35.36
2022-08-27T13:03:02.255Z,35.42
2022-08-27T13:04:34.119Z,35.51
2022-08-27T13:06:35.071Z,35.43
2022-08-27T13:08:07.377Z,35.43
2022-08-27T13:09:39.722Z,35.45
2022-08-27T13:11:18.344Z,35.51
2022-08-27T13:12:59.896Z,35.66
2022-08-27T13:14:38.945Z,35.79
2022-08-27T13:16:10.808Z,35.86
2022-08-27T13:17:43.875Z,35.90
2022-08-27T13:19:30.960Z,35.96
2022-08-27T13:21:15.039Z,36.05
2022-08-27T13:22:47.552Z,36.06
2022-08-27T13:24:21.570Z,36.08
2022-08-27T13:25:54.771Z,36.06
2022-08-27T13:27:27.546Z,36.08
2022-08-27T13:29:03.226Z,36.08
2022-08-27T13:30:39.815Z,36.02
2022-08-27T13:32:12.083Z,35.75
2022-08-27T13:33:44.240Z,35.60
2022-08-27T13:35:16.395Z,35.53
2022-08-27T13:37:02.698Z,35.46
2022-08-27T13:38:36.315Z,35.27
2022-08-27T13:40:08.808Z,35.02
2022-08-27T13:41:40.769Z,34.76
2022-08-27T13:43:12.780Z,34.68
2022-08-27T13:44:48.393Z,34.63
2022-08-27T13:46:21.602Z,34.58
2022-08-27T13:47:54.108Z,34.53
2022-08-27T13:49:26.086Z,34.59
2022-08-27T13:50:58.063Z,34.66
2022-08-27T13:52:33.928Z,34.67
2022-08-27T13:54:18.499Z,34.55
2022-08-27T13:55:51.123Z,34.37
2022-08-27T13:57:31.607Z,34.12
2022-08-27T13:59:12.779Z,34.18
2022-08-27T14:00:45.325Z,34.28
2022-08-27T14:02:21.177Z,34.39
2022-08-27T14:04:00.650Z,34.42
2022-08-27T14:05:37.346Z,34.40
2022-08-27T14:07:11.618Z,34.44
2022-08-27T14:08:43.859Z,34.45
2022-08-27T14:10:18.781Z,34.43
2022-08-27T14:11:50.822Z,34.22
2022-08-27T14:13:23.676Z,34.13
2022-08-27T14:14:55.710Z,34.10
2022-08-27T14:16:31.887Z,34.07
2022-08-27T14:18:04.362Z,34.00
2022-08-27T14:19:37.140Z,33.92
2022-08-27T14:21:09.683Z,33.79
2022-08-27T14:22:42.036Z,33.68
2022-08-27T14:24:14.193Z,33.54
2022-08-27T14:25:46.539Z,33.51
2022-08-27T14:27:20.239Z,33.50
2022-08-27T14:28:52.112Z,33.47
2022-08-27T14:30:29.433Z,33.42
2022-08-27T14:32:02.187Z,33.39
2022-08-27T14:33:34.036Z,33.36
2022-08-27T14:35:06.215Z,33.34
2022-08-27T14:36:38.712Z,33.35
2022-08-27T14:38:15.144Z,33.31
2022-08-27T14:39:46.880Z,33.37
2022-08-27T14:41:21.625Z,33.34
2022-08-27T14:42:54.080Z,33.31
2022-08-27T14:44:25.967Z,33.35
2022-08-27T14:45:57.745Z,33.42
2022-08-27T14:47:33.591Z,33.56
2022-08-27T14:49:08.318Z,33.62
2022-08-27T14:50:40.162Z,33.68
2022-08-27T14:52:12.150Z,33.75
2022-08-27T14:53:43.998Z,33.71
2022-08-27T14:55:16.083Z,33.73
2022-08-27T14:56:47.825Z,33.80
2022-08-27T14:58:19.976Z,33.83
2022-08-27T14:59:51.629Z,33.80
2022-08-27T15:01:24.086Z,33.82
2022-08-27T15:02:56.139Z,33.75
2022-08-27T15:04:27.907Z,33.69
2022-08-27T15:05:59.793Z,33.65
2022-08-27T15:07:32.336Z,33.61
2022-08-27T15:09:04.374Z,33.49
2022-08-27T15:10:36.341Z,33.49
2022-08-27T15:12:08.220Z,33.48
2022-08-27T15:13:52.025Z,33.39
2022-08-27T15:15:24.087Z,33.41
2022-08-27T15:16:56.199Z,33.39
2022-08-27T15:18:27.958Z,33.40
2022-08-27T15:19:59.790Z,33.33
2022-08-27T15:21:31.612Z,33.21
2022-08-27T15:23:03.566Z,33.15
2022-08-27T15:24:39.734Z,33.27
2022-08-27T15:26:13.026Z,33.42
2022-08-27T15:27:45.357Z,33.60
2022-08-27T15:29:17.184Z,33.70
2022-08-27T15:30:50.038Z,33.78
2022-08-27T15:32:21.846Z,33.91
2022-08-27T15:33:57.772Z,33.94
2022-08-27T15:35:29.778Z,33.89
2022-08-27T15:37:01.587Z,33.82
2022-08-27T15:38:33.397Z,33.80
2022-08-27T15:40:05.567Z,33.77
2022-08-27T15:41:46.185Z,33.68
2022-08-27T15:43:28.324Z,33.63
2022-08-27T15:45:00.162Z,33.65
2022-08-27T15:46:32.028Z,33.61
2022-08-27T15:48:03.939Z,33.53
2022-08-27T15:49:35.848Z,33.48
2022-08-27T15:51:09.367Z,33.44
2022-08-27T15:52:41.596Z,33.36
2022-08-27T15:54:13.292Z,33.28
2022-08-27T15:55:45.730Z,33.23
2022-08-27T15:57:20.637Z,33.18
2022-08-27T15:58:52.607Z,33.09
2022-08-27T16:00:24.632Z,33.11
2022-08-27T16:01:56.395Z,33.11
2022-08-27T16:03:35.397Z,33.03
2022-08-27T16:05:07.736Z,32.90
2022-08-27T16:06:39.507Z,32.89
2022-08-27T16:08:11.603Z,32.73
2022-08-27T16:09:43.919Z,32.57
2022-08-27T16:11:15.878Z,32.55
2022-08-27T16:12:47.543Z,32.53
2022-08-27T16:14:19.237Z,32.46
2022-08-27T16:15:51.388Z,32.38
2022-08-27T16:17:23.809Z,32.37
2022-08-27T16:18:55.480Z,32.27
2022-08-27T16:20:27.302Z,32.24
2022-08-27T16:21:59.065Z,32.16
2022-08-27T16:23:31.037Z,32.03
2022-08-27T16:25:03.088Z,31.97
2022-08-27T16:26:34.878Z,31.87
2022-08-27T16:28:07.192Z,31.80
2022-08-27T16:29:39.115Z,31.72
2022-08-27T16:31:13.666Z,31.61
2022-08-27T16:32:49.823Z,31.55
2022-08-27T16:34:23.374Z,31.49
2022-08-27T16:35:55.489Z,31.36
2022-08-27T16:37:27.187Z,31.25
2022-08-27T16:38:58.920Z,31.14
2022-08-27T16:40:31.180Z,31.03
2022-08-27T16:42:03.769Z,31.00
2022-08-27T16:43:35.471Z,30.92
2022-08-27T16:45:10.310Z,30.90
2022-08-27T16:46:44.273Z,30.84
2022-08-27T16:48:34.823Z,30.78
2022-08-27T16:50:26.303Z,30.61
2022-08-27T16:51:58.124Z,30.46
2022-08-27T16:53:33.297Z,30.33
2022-08-27T16:55:05.127Z,30.18
2022-08-27T16:56:37.847Z,30.10
2022-08-27T16:58:11.500Z,29.97
2022-08-27T16:59:43.330Z,29.88
2022-08-27T17:01:16.029Z,29.84
2022-08-27T17:02:47.978Z,29.75
2022-08-27T17:04:28.490Z,29.66
2022-08-27T17:06:02.736Z,29.54
2022-08-27T17:07:34.359Z,29.39
2022-08-27T17:09:06.054Z,29.30
2022-08-27T17:10:41.349Z,29.27
2022-08-27T17:12:13.019Z,29.27
2022-08-27T17:13:45.282Z,29.20
2022-08-27T17:15:17.179Z,29.14
2022-08-27T17:16:49.987Z,29.04
2022-08-27T17:18:22.726Z,28.93
2022-08-27T17:19:54.487Z,28.80
2022-08-27T17:21:29.708Z,28.68
2022-08-27T17:23:01.970Z,28.65
2022-08-27T17:24:34.004Z,28.61
2022-08-27T17:26:06.180Z,28.54
2022-08-27T17:27:37.831Z,28.48
2022-08-27T17:29:09.597Z,28.44
2022-08-27T17:30:41.248Z,28.34
2022-08-27T17:32:13.436Z,28.23
2022-08-27T17:33:46.261Z,28.17
2022-08-27T17:35:18.066Z,28.12
2022-08-27T17:36:50.318Z,28.06
2022-08-27T17:38:22.164Z,28.01
2022-08-27T17:39:58.125Z,27.94
2022-08-27T17:41:34.464Z,27.89
2022-08-27T17:43:06.255Z,27.82
2022-08-27T17:44:38.755Z,27.80
2022-08-27T17:46:10.734Z,27.81
2022-08-27T17:47:43.289Z,27.78
2022-08-27T17:49:15.453Z,27.76
2022-08-27T17:50:47.172Z,27.72
2022-08-27T17:52:19.078Z,27.68
2022-08-27T17:53:54.227Z,27.64
2022-08-27T17:55:31.265Z,27.62
2022-08-27T17:57:03.918Z,27.57
2022-08-27T17:58:35.633Z,27.55
2022-08-27T18:00:07.966Z,27.57
2022-08-27T18:01:41.444Z,27.53
2022-08-27T18:03:16.749Z,27.55
2022-08-27T18:04:48.525Z,27.53
2022-08-27T18:06:20.467Z,27.54
2022-08-27T18:07:52.492Z,27.52
2022-08-27T18:09:24.336Z,27.45
2022-08-27T18:10:56.090Z,27.46
2022-08-27T18:12:27.801Z,27.45
2022-08-27T18:14:04.582Z,27.40
2022-08-27T18:15:41.847Z,27.35
2022-08-27T18:17:13.973Z,27.23
2022-08-27T18:18:45.982Z,27.18
2022-08-27T18:20:17.788Z,27.09
2022-08-27T18:21:49.695Z,27.07
2022-08-27T18:23:22.060Z,27.07
2022-08-27T18:24:53.995Z,27.03
2022-08-27T18:26:27.089Z,27.00
2022-08-27T18:27:59.280Z,26.97
2022-08-27T18:29:31.179Z,26.94
2022-08-27T18:31:06.440Z,26.93
2022-08-27T18:32:39.147Z,26.84
2022-08-27T18:34:11.168Z,26.77
2022-08-27T18:35:43.065Z,26.74
2022-08-27T18:37:14.921Z,26.69
2022-08-27T18:38:47.539Z,26.68
2022-08-27T18:40:20.300Z,26.64
2022-08-27T18:41:52.196Z,26.60
2022-08-27T18:43:25.303Z,26.56
2022-08-27T18:44:57.273Z,26.51
2022-08-27T18:46:29.168Z,26.47
2022-08-27T18:48:02.640Z,26.43
2022-08-27T18:49:35.144Z,26.41
2022-08-27T18:51:08.083Z,26.41
2022-08-27T18:52:40.172Z,26.39
2022-08-27T18:54:11.962Z,26.40
2022-08-27T18:55:44.454Z,26.41
2022-08-27T18:57:16.335Z,26.37
2022-08-27T18:58:51.113Z,26.32
2022-08-27T19:00:22.996Z,26.30
2022-08-27T19:01:55.634Z,26.28
2022-08-27T19:03:31.714Z,26.26
2022-08-27T19:05:05.453Z,26.25
2022-08-27T19:06:37.237Z,26.23
2022-08-27T19:08:09.405Z,26.22
2022-08-27T19:09:41.054Z,26.20
2022-08-27T19:11:13.363Z,26.16
2022-08-27T19:12:45.033Z,26.15
2022-08-27T19:14:17.186Z,26.10
2022-08-27T19:15:53.136Z,26.06
2022-08-27T19:17:24.823Z,25.98
2022-08-27T19:18:56.631Z,25.93
2022-08-27T19:20:28.678Z,25.93
2022-08-27T19:22:00.791Z,25.91
2022-08-27T19:23:37.790Z,25.93
2022-08-27T19:25:09.518Z,25.91
2022-08-27T19:26:41.276Z,25.91
2022-08-27T19:28:15.000Z,25.91
2022-08-27T19:29:47.194Z,25.90
2022-08-27T19:31:18.880Z,25.85
2022-08-27T19:32:55.050Z,25.75
2022-08-27T19:34:28.819Z,25.63
2022-08-27T19:36:00.462Z,25.52
2022-08-27T19:37:32.424Z,25.40
2022-08-27T19:39:05.099Z,25.31
2022-08-27T19:40:37.247Z,25.23
2022-08-27T19:42:09.066Z,25.18
2022-08-27T19:43:44.742Z,25.20
2022-08-27T19:45:23.129Z,25.16
2022-08-27T19:47:02.146Z,25.10
2022-08-27T19:48:33.954Z,25.05
2022-08-27T19:50:06.149Z,25.06
2022-08-27T19:51:38.494Z,25.07
2022-08-27T19:53:10.412Z,25.11
2022-08-27T19:55:03.382Z,25.12
2022-08-27T19:56:37.719Z,25.12
2022-08-27T19:58:09.568Z,25.10
2022-08-27T19:59:42.088Z,25.08
2022-08-27T20:01:14.159Z,25.05
2022-08-27T20:02:46.493Z,25.00
2022-08-27T20:04:18.521Z,24.95
2022-08-27T20:05:50.693Z,24.94
2022-08-27T20:07:22.684Z,24.97
2022-08-27T20:08:54.424Z,24.98
2022-08-27T20:10:36.002Z,24.99
2022-08-27T20:12:09.320Z,25.04
2022-08-27T20:13:50.600Z,25.05
2022-08-27T20:15:23.551Z,25.07
2022-08-27T20:16:56.701Z,25.08
2022-08-27T20:18:28.488Z,25.08
2022-08-27T20:20:00.370Z,25.07
2022-08-27T20:21:32.691Z,25.07
2022-08-27T20:23:05.438Z,25.04
2022-08-27T20:24:37.837Z,25.01
2022-08-27T20:26:09.852Z,25.00
2022-08-27T20:27:41.929Z,24.99
2022-08-27T20:29:19.068Z,24.97
2022-08-27T20:31:04.681Z,24.92
2022-08-27T20:32:36.821Z,24.90
2022-08-27T20:34:08.489Z,24.88
2022-08-27T20:35:40.299Z,24.89
2022-08-27T20:37:12.254Z,24.93
2022-08-27T20:38:44.168Z,24.91
2022-08-27T20:40:19.835Z,24.87
2022-08-27T20:41:51.984Z,24.87
2022-08-27T20:43:24.044Z,24.85
2022-08-27T20:44:56.277Z,24.84
2022-08-27T20:46:29.063Z,24.82
2022-08-27T20:48:01.156Z,24.77
2022-08-27T20:49:35.865Z,24.74